createdAt,value
2022-11-26T00:01:53.814Z,0.10
2022-11-26T00:04:56.866Z,0.20
2022-11-26T00:08:00.499Z,0.20
2022-11-26T00:11:02.941Z,0.20
2022-11-26T00:14:12.197Z,0.20
2022-11-26T00:17:14.956Z,0.20
2022-11-26T00:20:17.400Z,0.20
2022-11-26T00:23:24.850Z,0.17
2022-11-26T00:26:27.280Z,0.30
2022-11-26T00:29:28.905Z,0.20
2022-11-26T00:32:30.605Z,0.20
2022-11-26T00:35:32.218Z,0.20
2022-11-26T00:38:33.788Z,0.20
2022-11-26T00:41:38.711Z,0.20
2022-11-26T00:44:40.664Z,0.20
2022-11-26T00:47:42.278Z,0.10
2022-11-26T00:50:47.776Z,0.25
2022-11-26T00:53:50.739Z,0.20
2022-11-26T00:56:52.570Z,0.20
2022-11-26T00:59:54.108Z,0.20
2022-11-26T01:02:56.385Z,0.20
2022-11-26T01:05:59.012Z,0.20
2022-11-26T01:09:00.781Z,0.20
2022-11-26T01:12:02.344Z,0.20
2022-11-26T01:15:04.272Z,0.20
2022-11-26T01:18:18.793Z,0.20
2022-11-26T01:21:21.640Z,0.20
2022-11-26T01:24:23.146Z,0.20
2022-11-26T01:27:24.693Z,0.20
2022-11-26T01:30:30.759Z,0.20
2022-11-26T01:33:32.321Z,0.10
2022-11-26T01:36:39.264Z,0.20
2022-11-26T01:39:41.285Z,0.20
2022-11-26T01:42:46.858Z,0.20
2022-11-26T01:45:48.463Z,0.13
2022-11-26T01:48:50.707Z,0.20
2022-11-26T01:51:54.932Z,0.20
2022-11-26T01:54:56.508Z,0.10
2022-11-26T01:57:58.200Z,0.20
2022-11-26T02:01:00.755Z,0.20
2022-11-26T02:04:05.061Z,0.20
2022-11-26T02:07:06.673Z,0.20
2022-11-26T02:10:09.656Z,0.20
2022-11-26T02:13:11.460Z,0.20
2022-11-26T02:16:33.752Z,0.20
2022-11-26T02:19:55.235Z,0.20
2022-11-26T02:23:02.480Z,0.20
2022-11-26T02:26:16.235Z,0.10
2022-11-26T02:29:26.179Z,0.20
2022-11-26T02:32:40.295Z,0.20
2022-11-26T02:35:47.726Z,0.20
2022-11-26T02:38:50.345Z,0.30
2022-11-26T02:41:55.303Z,0.20
2022-11-26T02:45:07.756Z,0.20
2022-11-26T02:48:14.978Z,0.10
2022-11-26T02:51:23.056Z,0.20
2022-11-26T02:54:26.503Z,0.20
2022-11-26T02:57:32.790Z,0.20
2022-11-26T03:00:38.059Z,0.20
2022-11-26T03:03:46.631Z,0.30
2022-11-26T03:06:49.020Z,0.20
2022-11-26T03:09:50.477Z,0.20
2022-11-26T03:12:52.010Z,0.13
2022-11-26T03:15:53.583Z,0.25
2022-11-26T03:18:55.159Z,0.20
2022-11-26T03:21:56.724Z,0.20
2022-11-26T03:24:58.290Z,0.20
2022-11-26T03:27:59.896Z,0.20
2022-11-26T03:31:01.507Z,0.20
2022-11-26T03:34:03.067Z,0.20
2022-11-26T03:37:04.621Z,0.20
2022-11-26T03:40:07.460Z,0.20
2022-11-26T03:43:09.040Z,0.20
2022-11-26T03:46:10.736Z,0.20
2022-11-26T03:49:12.307Z,0.22
2022-11-26T03:52:13.981Z,0.20
2022-11-26T03:55:15.663Z,0.20
2022-11-26T03:58:17.431Z,0.20
2022-11-26T04:01:19.138Z,0.15
2022-11-26T04:04:20.675Z,0.20
2022-11-26T04:07:22.239Z,0.22
2022-11-26T04:10:24.157Z,0.20
2022-11-26T04:13:25.718Z,0.20
2022-11-26T04:16:27.375Z,0.20
2022-11-26T04:19:29.035Z,0.20
2022-11-26T04:22:30.638Z,0.20
2022-11-26T04:25:32.291Z,0.20
2022-11-26T04:28:33.999Z,0.20
2022-11-26T04:31:35.629Z,0.20
2022-11-26T04:34:37.642Z,0.20
2022-11-26T04:37:39.371Z,0.20
2022-11-26T04:40:40.963Z,0.17
2022-11-26T04:43:42.496Z,0.15
2022-11-26T04:46:44.024Z,0.20
2022-11-26T04:49:45.584Z,0.20
2022-11-26T04:52:50.843Z,0.20
2022-11-26T04:55:53.420Z,0.20
2022-11-26T04:58:54.931Z,0.22
2022-11-26T05:01:56.606Z,0.20
2022-11-26T05:04:58.142Z,0.20
2022-11-26T05:07:59.714Z,0.20
2022-11-26T05:11:03.089Z,0.25
2022-11-26T05:14:04.687Z,0.20
2022-11-26T05:17:06.348Z,0.20
2022-11-26T05:20:08.580Z,0.20
2022-11-26T05:23:10.221Z,0.30
2022-11-26T05:26:12.050Z,0.20
2022-11-26T05:29:13.675Z,0.20
2022-11-26T05:32:15.254Z,0.20
2022-11-26T05:35:16.979Z,0.20
2022-11-26T05:38:18.580Z,0.30
2022-11-26T05:41:20.134Z,0.30
2022-11-26T05:44:21.679Z,0.20
2022-11-26T05:47:23.267Z,0.40
2022-11-26T05:50:24.900Z,0.30
2022-11-26T05:53:26.583Z,0.22
2022-11-26T05:56:28.144Z,0.30
2022-11-26T05:59:29.848Z,0.20
2022-11-26T06:02:31.516Z,0.20
2022-11-26T06:05:33.074Z,0.20
2022-11-26T06:08:35.333Z,0.20
2022-11-26T06:11:36.935Z,0.30
2022-11-26T06:14:42.953Z,0.20
2022-11-26T06:17:45.092Z,0.20
2022-11-26T06:20:46.666Z,0.20
2022-11-26T06:23:55.961Z,0.20
2022-11-26T06:27:00.596Z,0.20
2022-11-26T06:30:04.710Z,0.20
2022-11-26T06:33:06.312Z,0.20
2022-11-26T06:36:07.902Z,0.15
2022-11-26T06:39:10.452Z,0.20
2022-11-26T06:42:12.019Z,0.30
2022-11-26T06:45:13.513Z,0.20
2022-11-26T06:48:15.048Z,0.20
2022-11-26T06:51:17.365Z,0.30
2022-11-26T06:54:18.925Z,0.25
2022-11-26T06:57:20.449Z,0.20
2022-11-26T07:00:22.617Z,0.20
2022-11-26T07:03:28.032Z,0.20
2022-11-26T07:06:33.188Z,0.22
2022-11-26T07:09:34.851Z,0.20
2022-11-26T07:12:36.363Z,0.20
2022-11-26T07:15:38.119Z,0.20
2022-11-26T07:18:40.206Z,0.25
2022-11-26T07:21:41.984Z,0.20
2022-11-26T07:24:43.682Z,0.20
2022-11-26T07:27:45.593Z,0.20
2022-11-26T07:30:47.211Z,0.20
2022-11-26T07:33:49.653Z,0.15
2022-11-26T07:36:56.662Z,0.20
2022-11-26T07:39:59.481Z,0.20
2022-11-26T07:43:01.121Z,0.20
2022-11-26T07:46:03.849Z,0.20
2022-11-26T07:49:05.402Z,0.20
2022-11-26T07:52:07.225Z,0.15
2022-11-26T07:55:12.485Z,0.20
2022-11-26T07:58:15.377Z,0.10
2022-11-26T08:01:20.419Z,0.20
2022-11-26T08:04:22.024Z,0.20
2022-11-26T08:07:28.980Z,0.28
2022-11-26T08:10:31.134Z,0.22
2022-11-26T08:13:32.742Z,0.30
2022-11-26T08:16:34.813Z,0.20
2022-11-26T08:19:36.544Z,0.20
2022-11-26T08:22:38.111Z,0.20
2022-11-26T08:25:59.285Z,0.20
2022-11-26T08:29:01.436Z,0.20
2022-11-26T08:32:03.230Z,0.20
2022-11-26T08:35:05.383Z,0.20
2022-11-26T08:38:07.100Z,0.20
2022-11-26T08:41:12.130Z,0.20
2022-11-26T08:44:13.697Z,0.20
2022-11-26T08:47:15.261Z,0.20
2022-11-26T08:50:17.065Z,0.20
2022-11-26T08:53:18.683Z,0.20
2022-11-26T08:56:20.426Z,0.20
2022-11-26T08:59:24.283Z,0.10
2022-11-26T09:02:26.036Z,0.15
2022-11-26T09:05:28.041Z,0.20
2022-11-26T09:08:29.688Z,0.50
2022-11-26T09:11:32.564Z,0.20
2022-11-26T09:14:40.081Z,0.20
2022-11-26T09:17:41.808Z,0.15
2022-11-26T09:20:43.414Z,0.20
2022-11-26T09:23:45.069Z,0.20
2022-11-26T09:26:48.581Z,0.20
2022-11-26T09:29:50.136Z,0.20
2022-11-26T09:32:51.672Z,0.20
2022-11-26T09:35:53.271Z,0.20
2022-11-26T09:38:59.172Z,0.20
2022-11-26T09:42:03.473Z,0.20
2022-11-26T09:45:14.049Z,0.20
2022-11-26T09:48:24.690Z,0.20
2022-11-26T09:51:27.305Z,0.20
2022-11-26T09:54:30.299Z,0.20
2022-11-26T09:57:49.062Z,0.20
2022-11-26T10:00:53.078Z,0.20
2022-11-26T10:03:54.776Z,0.30
2022-11-26T10:07:26.177Z,0.20
2022-11-26T10:10:45.725Z,0.22
2022-11-26T10:14:09.890Z,0.20
2022-11-26T10:17:14.499Z,0.20
2022-11-26T10:20:54.761Z,0.30
2022-11-26T10:24:04.190Z,0.20
2022-11-26T10:27:13.202Z,0.20
2022-11-26T10:30:22.484Z,0.30
2022-11-26T10:33:24.528Z,0.38
2022-11-26T10:36:39.343Z,0.20
2022-11-26T10:39:40.881Z,0.20
2022-11-26T10:42:47.617Z,0.22
2022-11-26T10:45:54.703Z,0.28
2022-11-26T10:49:16.941Z,0.30
2022-11-26T10:52:31.290Z,0.22
2022-11-26T10:55:41.766Z,0.30
2022-11-26T10:58:45.288Z,0.30
2022-11-26T11:01:51.734Z,0.90
2022-11-26T11:05:01.236Z,1.00
2022-11-26T11:08:02.962Z,0.70
2022-11-26T11:11:05.136Z,0.30
2022-11-26T11:14:28.520Z,0.40
2022-11-26T11:17:34.966Z,0.45
2022-11-26T11:20:38.969Z,0.30
2022-11-26T11:24:07.183Z,0.40
2022-11-26T11:27:02.206Z,0.20
2022-11-26T11:30:04.226Z,0.35
2022-11-26T11:33:21.444Z,0.30
2022-11-26T11:36:29.339Z,0.20
2022-11-26T11:39:33.603Z,0.25
2022-11-26T11:42:35.356Z,0.30
2022-11-26T11:45:52.726Z,0.38
2022-11-26T11:49:32.212Z,0.32
2022-11-26T11:52:52.828Z,0.30
2022-11-26T11:56:31.165Z,0.38
2022-11-26T12:00:10.631Z,0.30
2022-11-26T12:03:31.103Z,0.30
2022-11-26T12:07:06.906Z,0.40
2022-11-26T12:10:16.827Z,0.32
2022-11-26T12:13:23.584Z,0.30
2022-11-26T12:16:29.149Z,0.43
2022-11-26T12:19:36.528Z,0.40
2022-11-26T12:22:49.518Z,0.40
2022-11-26T12:26:26.688Z,0.68
2022-11-26T12:29:41.860Z,0.43
2022-11-26T12:32:51.134Z,0.40
2022-11-26T12:35:59.441Z,0.30
2022-11-26T12:39:03.556Z,0.30
2022-11-26T12:42:17.650Z,0.50
2022-11-26T12:45:33.125Z,0.95
2022-11-26T12:48:35.060Z,0.43
2022-11-26T12:51:44.404Z,0.40
2022-11-26T12:55:04.190Z,0.40
2022-11-26T12:58:12.661Z,0.40
2022-11-26T13:01:14.433Z,0.50
2022-11-26T13:08:07.683Z,0.60
2022-11-26T13:11:39.539Z,0.80
2022-11-26T13:14:50.923Z,0.70
2022-11-26T13:17:53.228Z,0.88
2022-11-26T13:21:03.516Z,0.80
2022-11-26T13:24:05.741Z,0.90
2022-11-26T13:27:37.070Z,1.00
2022-11-26T13:30:54.405Z,1.17
2022-11-26T13:34:15.737Z,0.60
2022-11-26T13:37:36.399Z,0.50
2022-11-26T13:41:21.115Z,0.50
2022-11-26T13:44:43.710Z,0.50
2022-11-26T13:47:58.448Z,0.32
2022-11-26T13:51:14.207Z,0.50
2022-11-26T13:54:32.482Z,0.40
2022-11-26T13:57:41.549Z,0.35
2022-11-26T14:00:43.482Z,0.40
2022-11-26T14:03:48.571Z,0.32
2022-11-26T14:07:05.448Z,0.30
2022-11-26T14:10:28.818Z,0.40
2022-11-26T14:13:30.631Z,0.40
2022-11-26T14:17:01.088Z,0.47
2022-11-26T14:20:04.508Z,0.40
2022-11-26T14:23:41.499Z,0.40
2022-11-26T14:26:43.032Z,0.40
2022-11-26T14:29:46.477Z,0.30
2022-11-26T14:32:52.348Z,0.40
2022-11-26T14:35:56.575Z,0.30
2022-11-26T14:39:11.278Z,0.25
2022-11-26T14:42:17.587Z,0.40
2022-11-26T14:45:21.626Z,0.28
2022-11-26T14:48:28.762Z,0.30
2022-11-26T14:51:32.089Z,0.30
2022-11-26T14:54:38.558Z,0.30
2022-11-26T14:57:48.303Z,0.35
2022-11-26T15:01:15.013Z,0.40
2022-11-26T15:04:44.926Z,0.40
2022-11-26T15:07:47.693Z,0.50
2022-11-26T15:11:05.805Z,0.30
2022-11-26T15:14:32.867Z,0.30
2022-11-26T15:17:35.442Z,0.50
2022-11-26T15:20:37.013Z,0.40
2022-11-26T15:23:39.485Z,0.40
2022-11-26T15:26:45.308Z,0.38
2022-11-26T15:29:49.984Z,0.30
2022-11-26T15:33:00.795Z,0.30
2022-11-26T15:36:03.974Z,0.40
2022-11-26T15:39:08.043Z,0.50
2022-11-26T15:42:26.915Z,0.47
2022-11-26T15:45:39.245Z,0.70
2022-11-26T15:48:52.038Z,0.30
2022-11-26T15:52:14.923Z,0.50
2022-11-26T15:55:26.151Z,0.40
2022-11-26T15:58:49.206Z,0.28
2022-11-26T16:01:50.843Z,0.30
2022-11-26T16:04:55.962Z,0.45
2022-11-26T16:08:04.815Z,1.30
2022-11-26T16:11:08.797Z,1.50
2022-11-26T16:14:31.793Z,0.90
2022-11-26T16:17:33.440Z,0.63
2022-11-26T16:20:35.002Z,0.75
2022-11-26T16:23:36.840Z,0.60
2022-11-26T16:27:01.021Z,0.43
2022-11-26T16:30:07.587Z,0.60
2022-11-26T16:33:09.898Z,0.40
2022-11-26T16:36:22.483Z,0.50
2022-11-26T16:39:27.480Z,0.30
2022-11-26T16:42:33.081Z,0.40
2022-11-26T16:45:34.637Z,0.30
2022-11-26T16:48:36.247Z,0.35
2022-11-26T16:51:37.806Z,0.40
2022-11-26T16:54:39.713Z,0.30
2022-11-26T16:57:46.604Z,0.40
2022-11-26T17:00:48.488Z,0.40
2022-11-26T17:03:50.143Z,0.40
2022-11-26T17:06:51.785Z,0.35
2022-11-26T17:09:53.881Z,0.40
2022-11-26T17:12:55.890Z,0.40
2022-11-26T17:15:57.884Z,0.40
2022-11-26T17:18:59.522Z,0.40
2022-11-26T17:22:01.098Z,0.38
2022-11-26T17:25:02.711Z,0.43
2022-11-26T17:28:10.676Z,0.70
2022-11-26T17:31:12.306Z,0.30
2022-11-26T17:34:13.987Z,0.40
2022-11-26T17:37:19.658Z,0.43
2022-11-26T17:40:22.968Z,0.40
2022-11-26T17:43:24.506Z,0.50
2022-11-26T17:46:26.173Z,0.47
2022-11-26T17:49:27.894Z,0.32
2022-11-26T17:52:29.425Z,0.47
2022-11-26T17:55:31.469Z,0.50
2022-11-26T17:58:33.041Z,0.40
2022-11-26T18:01:34.779Z,0.50
2022-11-26T18:04:36.955Z,0.30
2022-11-26T18:07:39.510Z,0.43
2022-11-26T18:10:41.259Z,0.40
2022-11-26T18:13:43.050Z,0.40
2022-11-26T18:16:45.374Z,0.40
2022-11-26T18:19:47.491Z,0.35
2022-11-26T18:22:58.086Z,0.40
2022-11-26T18:25:59.641Z,0.30
2022-11-26T18:29:04.275Z,0.40
2022-11-26T18:32:05.959Z,0.57
2022-11-26T18:35:08.063Z,0.40
2022-11-26T18:38:11.451Z,0.30
2022-11-26T18:41:13.701Z,0.40
2022-11-26T18:44:15.335Z,0.50
2022-11-26T18:47:16.956Z,0.35
2022-11-26T18:50:18.859Z,0.50
2022-11-26T18:53:20.377Z,0.40
2022-11-26T18:56:23.180Z,0.38
2022-11-26T18:59:24.755Z,0.30
2022-11-26T19:02:26.344Z,0.38
2022-11-26T19:05:27.995Z,0.40
2022-11-26T19:08:29.528Z,0.40
2022-11-26T19:11:32.064Z,0.50
2022-11-26T19:14:33.587Z,0.40
2022-11-26T19:17:35.113Z,0.40
2022-11-26T19:20:36.648Z,0.50
2022-11-26T19:23:38.324Z,0.50
2022-11-26T19:26:41.448Z,0.35
2022-11-26T19:29:43.061Z,0.40
2022-11-26T19:32:44.764Z,0.40
2022-11-26T19:35:46.296Z,0.30
2022-11-26T19:38:48.234Z,0.40
2022-11-26T19:41:49.850Z,0.40
2022-11-26T19:44:51.400Z,0.30
2022-11-26T19:47:53.827Z,0.43
2022-11-26T19:50:55.762Z,0.32
2022-11-26T19:53:57.341Z,0.40
2022-11-26T19:56:58.850Z,0.50
2022-11-26T20:00:00.387Z,0.45
2022-11-26T20:03:02.079Z,0.40
2022-11-26T20:06:13.054Z,0.40
2022-11-26T20:09:14.866Z,0.30
2022-11-26T20:12:16.359Z,0.30
2022-11-26T20:15:18.151Z,0.30
2022-11-26T20:18:19.680Z,0.30
2022-11-26T20:21:25.783Z,0.40
2022-11-26T20:24:27.348Z,0.30
2022-11-26T20:27:28.910Z,0.30
2022-11-26T20:30:31.956Z,0.30
2022-11-26T20:33:35.156Z,0.32
2022-11-26T20:36:37.761Z,0.28
2022-11-26T20:39:39.626Z,0.60
2022-11-26T20:42:45.387Z,0.28
2022-11-26T20:45:47.726Z,0.20
2022-11-26T20:48:49.334Z,0.40
2022-11-26T20:51:50.987Z,0.30
2022-11-26T20:54:54.024Z,0.30
2022-11-26T20:57:55.665Z,0.30
2022-11-26T21:00:57.817Z,0.30
2022-11-26T21:03:59.452Z,0.30
2022-11-26T21:07:00.996Z,0.30
2022-11-26T21:10:02.795Z,0.30
2022-11-26T21:13:04.448Z,0.32
2022-11-26T21:16:10.546Z,0.30
2022-11-26T21:19:12.783Z,0.25
2022-11-26T21:22:14.331Z,0.32
2022-11-26T21:25:16.030Z,0.30
2022-11-26T21:28:20.053Z,0.25
2022-11-26T21:31:22.780Z,0.20
2022-11-26T21:34:24.903Z,0.28
2022-11-26T21:37:27.837Z,0.35
2022-11-26T21:40:29.892Z,0.30
2022-11-26T21:43:31.667Z,0.45
2022-11-26T21:46:38.340Z,0.20
2022-11-26T21:49:40.867Z,0.30
2022-11-26T21:52:42.624Z,0.22
2022-11-26T21:55:44.169Z,0.30
2022-11-26T21:58:46.296Z,0.30
2022-11-26T22:01:48.056Z,0.30
2022-11-26T22:04:49.666Z,0.35
2022-11-26T22:07:51.679Z,0.30
2022-11-26T22:10:53.254Z,0.30
2022-11-26T22:13:55.487Z,0.30
2022-11-26T22:16:57.095Z,0.22
2022-11-26T22:19:58.613Z,0.30
2022-11-26T22:23:00.147Z,0.30
2022-11-26T22:26:01.733Z,0.20
2022-11-26T22:29:04.119Z,0.20
2022-11-26T22:32:05.819Z,0.20
2022-11-26T22:35:07.751Z,0.30
2022-11-26T22:38:09.312Z,0.30
2022-11-26T22:41:13.308Z,0.20
2022-11-26T22:44:15.908Z,0.30
2022-11-26T22:47:17.451Z,0.20
2022-11-26T22:50:19.276Z,0.28
2022-11-26T22:53:22.108Z,0.20
2022-11-26T22:56:24.411Z,0.30
2022-11-26T22:59:27.602Z,0.20
2022-11-26T23:02:29.384Z,0.20
2022-11-26T23:05:30.936Z,0.30
2022-11-26T23:08:32.845Z,0.20
2022-11-26T23:11:37.787Z,0.20
2022-11-26T23:14:39.299Z,0.30
2022-11-26T23:17:40.840Z,0.57
2022-11-26T23:20:43.399Z,0.43
2022-11-26T23:23:45.326Z,0.20
2022-11-26T23:26:47.136Z,0.30
2022-11-26T23:29:48.728Z,0.10
2022-11-26T23:32:50.329Z,0.30
2022-11-26T23:35:51.821Z,0.20
2022-11-26T23:38:53.811Z,0.20
2022-11-26T23:41:55.381Z,0.20
2022-11-26T23:44:56.934Z,0.20
2022-11-26T23:47:59.648Z,0.20
2022-11-26T23:51:01.289Z,0.20
2022-11-26T23:54:02.947Z,0.20
2022-11-26T23:57:04.459Z,0.30
